Opal Express — V7KB8 — position and weather

sailwx.info

Track history (hours):
 
Tides and Currents Weather Stations Pressure Air Temp Water Temp Dewpoint Dewpoint Depression Visibility Wind Speed Wind Dir Waves Ship Positions

Opal Express

Last reported at 2017-Jan-29 16:04 UTC. Time now 2017-Feb-23 18:54 UTC.
Position N 34°59' E 139°40'.
Warning: this ship's position is 25 days out of date.

Length 179 m; draft 7.8 m.

Type: Tanker. MMSI: 538002500.

Date/timePositionNaut miles runAvg speedWind from/ knotsBaromVisibWave heightAir tempDewpointWater temp
2017-Jan-29 16:04N 34°59' E 139°40'714.3
2017-Jan-29 15:33N 35°06' E 139°44'1110.9
2017-Jan-29 14:33N 35°17' E 139°45'1111.4
2017-Jan-29 13:34N 35°28' E 139°48'10 9.6
2017-Jan-29 12:32N 35°34' E 139°58'0 0.0
2017-Jan-29 00:25N 35°34' E 139°58'4 0.2
2017-Jan-28 00:34N 35°35' E 140°03'9 9.1
2017-Jan-27 23:34N 35°30' E 139°54'1211.5
2017-Jan-27 22:34N 35°21' E 139°45'1110.9
2017-Jan-27 21:34N 35°10' E 139°47'5 5.2
2017-Jan-27 20:33N 35°05' E 139°45'8 7.5
2017-Jan-27 19:33N 34°58' E 139°42'243 7.7
2017-Jan-26 12:08N 33°54' E 134°58'814.0
2017-Jan-26 11:33N 34°02' E 134°59'1010.4
2017-Jan-26 10:33N 34°09' E 135°08'3 0.3
2017-Jan-25 22:32N 34°09' E 135°12'5 4.7
2017-Jan-25 21:32N 34°09' E 135°06'0 0.0
2017-Jan-25 20:32N 34°09' E 135°06'0 0.0
2017-Jan-25 19:32N 34°09' E 135°06'0 0.0
2017-Jan-25 18:32N 34°09' E 135°06'0 0.0
2017-Jan-25 17:29N 34°09' E 135°06'0 0.1
2017-Jan-25 16:32N 34°09' E 135°06'0 0.0
2017-Jan-25 15:32N 34°09' E 135°06'0 0.0
2017-Jan-25 14:32N 34°09' E 135°06'0 0.0
2017-Jan-25 13:29N 34°09' E 135°06'0 0.0
2017-Jan-25 12:32N 34°09' E 135°06'0 0.0
2017-Jan-25 11:32N 34°09' E 135°06'0 0.1
2017-Jan-25 10:32N 34°09' E 135°06'5 5.6
2017-Jan-25 09:33N 34°13' E 135°02'1111.4
2017-Jan-25 08:33N 34°25' E 135°02'1010.4
2017-Jan-25 07:34N 34°34' E 135°06'1010.3
2017-Jan-25 06:33N 34°35' E 134°54'12 0.4
2017-Jan-23 19:25N 34°31' E 134°40'1214.1
2017-Jan-23 18:33N 34°36' E 134°53'1110.5
2017-Jan-23 17:33N 34°35' E 135°06'5 4.7
2017-Jan-23 16:33N 34°30' E 135°06'1110.7
2017-Jan-23 15:31N 34°20' E 135°00'1010.2
2017-Jan-23 14:33N 34°10' E 135°00'7 6.9
2017-Jan-23 13:32N 34°03' E 134°58'  
Track history (hours):
 
Tides and Currents Weather Stations Pressure Air Temp Water Temp Dewpoint Dewpoint Depression Visibility Wind Speed Wind Dir Waves Ship Positions

Opal Express

Last reported at 2017-Jan-29 16:04 UTC. Time now 2017-Feb-23 18:54 UTC.
Position N 34°59' E 139°40'.
Warning: this ship's position is 25 days out of date.

Length 179 m; draft 7.8 m.

Type: Tanker. MMSI: 538002500.

Date/timePositionNaut miles runAvg speedWind from/ knotsBaromVisibWave heightAir tempDewpointWater temp
2017-Jan-29 16:04N 34°59' E 139°40'714.3
2017-Jan-29 15:33N 35°06' E 139°44'1110.9
2017-Jan-29 14:33N 35°17' E 139°45'1111.4
2017-Jan-29 13:34N 35°28' E 139°48'10 9.6
2017-Jan-29 12:32N 35°34' E 139°58'0 0.0
2017-Jan-29 00:25N 35°34' E 139°58'4 0.2
2017-Jan-28 00:34N 35°35' E 140°03'9 9.1
2017-Jan-27 23:34N 35°30' E 139°54'1211.5
2017-Jan-27 22:34N 35°21' E 139°45'1110.9
2017-Jan-27 21:34N 35°10' E 139°47'5 5.2
2017-Jan-27 20:33N 35°05' E 139°45'8 7.5
2017-Jan-27 19:33N 34°58' E 139°42'243 7.7
2017-Jan-26 12:08N 33°54' E 134°58'814.0
2017-Jan-26 11:33N 34°02' E 134°59'1010.4
2017-Jan-26 10:33N 34°09' E 135°08'3 0.3
2017-Jan-25 22:32N 34°09' E 135°12'5 4.7
2017-Jan-25 21:32N 34°09' E 135°06'0 0.0
2017-Jan-25 20:32N 34°09' E 135°06'0 0.0
2017-Jan-25 19:32N 34°09' E 135°06'0 0.0
2017-Jan-25 18:32N 34°09' E 135°06'0 0.0
2017-Jan-25 17:29N 34°09' E 135°06'0 0.1
2017-Jan-25 16:32N 34°09' E 135°06'0 0.0
2017-Jan-25 15:32N 34°09' E 135°06'0 0.0
2017-Jan-25 14:32N 34°09' E 135°06'0 0.0
2017-Jan-25 13:29N 34°09' E 135°06'0 0.0
2017-Jan-25 12:32N 34°09' E 135°06'0 0.0
2017-Jan-25 11:32N 34°09' E 135°06'0 0.1
2017-Jan-25 10:32N 34°09' E 135°06'5 5.6
2017-Jan-25 09:33N 34°13' E 135°02'1111.4
2017-Jan-25 08:33N 34°25' E 135°02'1010.4
2017-Jan-25 07:34N 34°34' E 135°06'1010.3
2017-Jan-25 06:33N 34°35' E 134°54'12 0.4
2017-Jan-23 19:25N 34°31' E 134°40'1214.1
2017-Jan-23 18:33N 34°36' E 134°53'1110.5
2017-Jan-23 17:33N 34°35' E 135°06'5 4.7
2017-Jan-23 16:33N 34°30' E 135°06'1110.7
2017-Jan-23 15:31N 34°20' E 135°00'1010.2
2017-Jan-23 14:33N 34°10' E 135°00'7 6.9
2017-Jan-23 13:32N 34°03' E 134°58'  

Dump ship's entire track history